Detall de PIREP

Printer-friendly versionPDF version

[2014/11/21 09:17:00]
Flight IATA:CT3403
Pilot Number:042
Company ICAO:CAT
Aircraft Type:A320/E
PAX:95
Departing Airport: ENGM
Destination Airport: LEBL
Alternate Airport:LERS
Online: VATSIM
Route:TOR Z705 AMADA UZ705 PAM UN872 MEDIL KOVIN UM728 RESMI UN857 DIRMO UN855 PPG UP84 ALBER
Flight Level:F350
No Slew and time accel
No pause
Crash detect
Detect pilot in Cockpit between each 30 and 45 minutes
09:17 Zero fuel Weight: 108526 Lbs, Fuel Weight: 41832 Lbs
09:17 VATSIM:ENGM 210850Z 02003KT 9999 VCSH FEW012 BKN014 00/M01 Q1028 TEMPO SCT012 BKN020
09:17 VATSIM:LEBL 210900Z 33007KT 9999 FEW018 BKN028 16/11 Q1020 NOSIG
09:22 Parking Brakes off
09:34 Take-off
09:34 Take off Weight: 149762 Lbs
09:34 Wind: 020º @ 002 Knots Heading: 016º
09:34 POS N60º 11´ 57´´ E011º 04´ 55´´
09:34 Gear Up: 142 Knots
09:34 Flaps:3 at 142 Knots
09:36 Flaps:2 at 151 Knots
09:36 Flaps:0 at 198 Knots
09:49 Wind:299º@001 Knots Heading: 205º Ground Speed: 511 Knots Altitude 34110 ft
09:49 TOC
09:49 Fuel Weight: 38387 Lb
10:04 Wind:045º@002 Knots Heading: 203º Ground Speed: 508 Knots Altitude 36433 ft
10:19 Wind:057º@001 Knots Heading: 201º Ground Speed: 508 Knots Altitude 36404 ft
10:34 Wind:119º@008 Knots Heading: 194º Ground Speed: 507 Knots Altitude 36315 ft
10:49 Wind:085º@008 Knots Heading: 205º Ground Speed: 513 Knots Altitude 36256 ft
11:04 Wind:081º@004 Knots Heading: 201º Ground Speed: 511 Knots Altitude 36197 ft
11:19 Wind:120º@004 Knots Heading: 212º Ground Speed: 513 Knots Altitude 36138 ft
11:34 Wind:103º@003 Knots Heading: 158º Ground Speed: 514 Knots Altitude 36138 ft
11:49 Wind:135º@009 Knots Heading: 178º Ground Speed: 514 Knots Altitude 36167 ft
12:02 TOD
12:02 Fuel Weight: 27158 Lb
12:04 Wind:129º@007 Knots Heading: 178º Ground Speed: 485 Knots Altitude 30351 ft
12:19 Wind:194º@005 Knots Heading: 190º Ground Speed: 266 Knots Altitude 13635 ft
12:19 Flaps:1 at 201 Knots
12:31 Flaps:3 at 181 Knots
12:31 Gear Down: 180 Knots
12:31 Flaps:4 at 171 Knots
12:31 Flaps:5 at 165 Knots
12:34 Wind:040º@003 Knots Heading: 245º Ground Speed: 147 Knots Altitude 406 ft
12:34 TouchDown:Rate -353 ft/min Speed: 140 Knots
12:34 VATSIM:LEBL 211200Z 04004KT 9999 FEW018 SCT025 20/14 Q1019 NOSIG
12:34 Land
12:34 Wind:040º@003 Knots
12:34 Heading: 245º
12:34 Flight Duration: 03:00
12:34 Landing Weight: 134475 Lbs
12:34 POS N41º 18´ 03´´ E002º 05´ 24´´
12:38 Parking brakes on
12:38 Block to Block Duration: 03:16
12:38 Final Fuel: 25776 Lbls
12:38 Spent Fuel: 16056 Lbls
12:38 Flight Length: 809 NM
12:38 TOD Land Length: 34 NM

Exportar CSV

Powered by Drupal - Modified by Danger4k